Time;durP1;ratioP1;P1;durP2;ratioP2;P2;SDS_P1;SDS_P2;PMS_P1;PMS_P2;Temp;Humidity;BMP_temperature;BMP_pressure;BME280_temperature;BME280_humidity;BME280_pressure;Samples;Min_cycle;Max_cycle;Signal;HPM_P1;HPM_P2
2023/08/27 00:00:19;;;;;;;3.87;2.13;;;;;;;;;;5030873;28;20505;-54
2023/08/27 00:02:46;;;;;;;4.17;2.07;;;;;;;;;;5030063;28;20886;-56
2023/08/27 00:05:13;;;;;;;2.63;1.63;;;;;;;;;;5014794;28;20488;-55
2023/08/27 00:07:41;;;;;;;3.37;2.07;;;;;;;;;;5023446;28;20447;-56
2023/08/27 00:10:09;;;;;;;7.93;1.97;;;;;;;;;;5011055;28;20530;-55
2023/08/27 00:12:36;;;;;;;4.03;2.10;;;;;;;;;;5010913;28;20451;-56
2023/08/27 00:15:05;;;;;;;5.13;1.93;;;;;;;;;;5024994;28;21073;-56
2023/08/27 00:17:32;;;;;;;2.90;1.63;;;;;;;;;;5030423;28;20617;-55
2023/08/27 00:20:00;;;;;;;2.60;1.50;;;;;;;;;;5030270;28;21004;-56
2023/08/27 00:22:27;;;;;;;3.30;1.90;;;;;;;;;;5029961;28;20992;-54
2023/08/27 00:24:55;;;;;;;3.43;2.07;;;;;;;;;;5030174;28;20457;-55
2023/08/27 00:27:22;;;;;;;3.27;2.13;;;;;;;;;;5030591;28;20534;-56
2023/08/27 00:29:49;;;;;;;4.50;2.43;;;;;;;;;;5030901;28;20474;-54
2023/08/27 00:32:18;;;;;;;3.83;2.03;;;;;;;;;;5030282;28;20548;-55
2023/08/27 00:34:45;;;;;;;3.53;2.43;;;;;;;;;;5030111;28;20442;-54
2023/08/27 00:37:12;;;;;;;3.90;1.90;;;;;;;;;;5030696;28;20473;-55
2023/08/27 00:39:39;;;;;;;3.50;2.37;;;;;;;;;;5029184;28;20532;-56
2023/08/27 00:42:07;;;;;;;5.80;2.20;;;;;;;;;;5029113;28;20470;-54
2023/08/27 00:44:34;;;;;;;5.70;2.20;;;;;;;;;;5028990;28;20537;-55
2023/08/27 00:47:02;;;;;;;4.87;2.30;;;;;;;;;;5029263;28;20442;-56
2023/08/27 00:49:30;;;;;;;4.27;2.23;;;;;;;;;;5029596;28;20472;-56
2023/08/27 00:51:58;;;;;;;4.23;2.17;;;;;;;;;;5032676;28;20536;-54
2023/08/27 00:54:26;;;;;;;3.80;2.13;;;;;;;;;;5032948;28;20450;-55
2023/08/27 00:56:53;;;;;;;3.23;1.90;;;;;;;;;;5034033;28;20560;-54
2023/08/27 00:59:21;;;;;;;4.00;1.93;;;;;;;;;;5033579;28;20450;-55
2023/08/27 01:01:48;;;;;;;4.33;2.00;;;;;;;;;;5033344;28;20574;-54
2023/08/27 01:04:15;;;;;;;3.70;1.97;;;;;;;;;;5033754;28;20988;-54
2023/08/27 01:06:44;;;;;;;3.20;2.00;;;;;;;;;;5033641;28;20470;-57
2023/08/27 01:09:16;;;;;;;2.77;1.73;;;;;;;;;;5033917;28;20529;-56
2023/08/27 01:11:54;;;;;;;5.67;2.17;;;;;;;;;;5033723;28;20543;-54
2023/08/27 01:14:21;;;;;;;4.10;2.30;;;;;;;;;;5033630;28;20528;-59
2023/08/27 01:16:50;;;;;;;3.30;2.03;;;;;;;;;;5033909;28;20535;-54
2023/08/27 01:19:17;;;;;;;3.40;2.10;;;;;;;;;;5034010;28;20469;-55
2023/08/27 01:21:46;;;;;;;3.70;2.17;;;;;;;;;;5033944;28;20477;-56
2023/08/27 01:24:13;;;;;;;2.83;2.20;;;;;;;;;;5033195;28;20439;-55
2023/08/27 01:26:47;;;;;;;5.27;2.23;;;;;;;;;;5033346;28;20442;-55
2023/08/27 01:29:19;;;;;;;4.30;2.00;;;;;;;;;;5033396;28;20500;-55
2023/08/27 01:31:49;;;;;;;4.90;2.63;;;;;;;;;;5032864;28;20567;-55
2023/08/27 01:34:17;;;;;;;5.33;2.40;;;;;;;;;;5033569;28;20530;-55
2023/08/27 01:36:46;;;;;;;2.90;2.10;;;;;;;;;;5026604;28;20912;-54
2023/08/27 01:39:15;;;;;;;3.70;2.50;;;;;;;;;;5013614;28;20447;-54
2023/08/27 01:41:42;;;;;;;4.20;2.30;;;;;;;;;;5013299;28;20442;-54
2023/08/27 01:44:09;;;;;;;2.93;2.03;;;;;;;;;;5013582;28;20862;-54
2023/08/27 01:46:36;;;;;;;2.90;2.27;;;;;;;;;;5030433;28;20541;-55
2023/08/27 01:49:04;;;;;;;3.70;1.93;;;;;;;;;;5033264;28;20447;-54
2023/08/27 01:51:31;;;;;;;3.43;1.90;;;;;;;;;;5032653;28;20537;-54
2023/08/27 01:53:58;;;;;;;4.67;2.30;;;;;;;;;;5032445;28;20537;-55
2023/08/27 01:56:27;;;;;;;4.73;2.00;;;;;;;;;;5033114;28;20477;-54
2023/08/27 01:58:54;;;;;;;4.97;2.27;;;;;;;;;;5033497;28;20525;-55
2023/08/27 02:01:21;;;;;;;4.33;2.23;;;;;;;;;;5032832;28;20955;-56
2023/08/27 02:03:48;;;;;;;3.10;2.27;;;;;;;;;;5033234;28;20493;-56
2023/08/27 02:06:16;;;;;;;3.77;2.00;;;;;;;;;;5032384;28;20530;-56
2023/08/27 02:08:43;;;;;;;4.50;2.27;;;;;;;;;;5012758;28;20494;-54
2023/08/27 02:11:10;;;;;;;11.00;2.20;;;;;;;;;;5014218;28;21032;-54
2023/08/27 02:13:39;;;;;;;7.93;2.77;;;;;;;;;;5030709;28;20498;-55
2023/08/27 02:16:06;;;;;;;4.20;2.30;;;;;;;;;;5031016;28;20552;-55
2023/08/27 02:18:33;;;;;;;2.77;1.87;;;;;;;;;;5031214;28;20473;-56
2023/08/27 02:21:00;;;;;;;2.60;2.27;;;;;;;;;;5031060;28;20538;-54
2023/08/27 02:23:28;;;;;;;3.27;2.03;;;;;;;;;;5030654;28;20500;-55
2023/08/27 02:25:55;;;;;;;3.77;1.93;;;;;;;;;;5031915;28;20478;-55
2023/08/27 02:28:22;;;;;;;3.60;1.90;;;;;;;;;;5032186;28;20446;-56
2023/08/27 02:30:55;;;;;;;3.70;2.27;;;;;;;;;;5032686;28;20512;-54
2023/08/27 02:33:22;;;;;;;3.23;2.27;;;;;;;;;;5031867;28;20541;-57
2023/08/27 02:35:49;;;;;;;2.73;1.67;;;;;;;;;;5031488;28;20988;-56
2023/08/27 02:38:17;;;;;;;4.67;2.63;;;;;;;;;;5019671;28;20443;-55
2023/08/27 02:40:44;;;;;;;3.30;1.80;;;;;;;;;;5012442;28;20547;-54
2023/08/27 02:43:11;;;;;;;3.30;2.17;;;;;;;;;;5033580;23;20557;-59
2023/08/27 02:45:38;;;;;;;3.27;2.07;;;;;;;;;;5010521;28;20810;-59
2023/08/27 02:48:07;;;;;;;3.30;1.90;;;;;;;;;;5010790;28;20443;-58
2023/08/27 02:50:34;;;;;;;5.83;1.57;;;;;;;;;;5010675;28;20482;-58
2023/08/27 02:53:02;;;;;;;3.13;2.00;;;;;;;;;;5010788;28;20463;-58
2023/08/27 02:55:31;;;;;;;3.10;2.07;;;;;;;;;;5010119;28;20467;-58
2023/08/27 02:57:58;;;;;;;3.83;2.10;;;;;;;;;;5011908;28;20464;-59
2023/08/27 03:00:26;;;;;;;3.83;2.40;;;;;;;;;;5012012;28;20529;-58
2023/08/27 03:02:53;;;;;;;4.30;2.83;;;;;;;;;;5011950;28;20554;-57
2023/08/27 03:05:22;;;;;;;2.90;2.07;;;;;;;;;;5011025;28;20456;-57
2023/08/27 03:07:49;;;;;;;5.00;2.93;;;;;;;;;;5003345;28;21006;-56
2023/08/27 03:10:16;;;;;;;3.27;2.50;;;;;;;;;;4992634;28;20619;-57
2023/08/27 03:12:44;;;;;;;5.63;2.10;;;;;;;;;;5000299;28;20881;-57
2023/08/27 03:15:12;;;;;;;3.03;2.30;;;;;;;;;;5011164;28;20481;-58
2023/08/27 03:17:39;;;;;;;2.63;2.10;;;;;;;;;;5009666;28;20854;-58
2023/08/27 03:20:07;;;;;;;6.07;2.50;;;;;;;;;;5011414;28;20862;-58
2023/08/27 03:22:36;;;;;;;3.57;2.43;;;;;;;;;;5011006;28;20545;-57
2023/08/27 03:25:03;;;;;;;4.10;2.27;;;;;;;;;;5010655;28;20523;-56
2023/08/27 03:27:30;;;;;;;4.23;2.40;;;;;;;;;;4997494;28;20475;-58
2023/08/27 03:29:58;;;;;;;3.40;2.70;;;;;;;;;;4996805;28;20479;-58
2023/08/27 03:32:25;;;;;;;3.70;2.07;;;;;;;;;;4992018;28;20932;-57
2023/08/27 03:34:52;;;;;;;4.03;2.33;;;;;;;;;;4991829;28;20464;-57
2023/08/27 03:37:19;;;;;;;5.10;2.03;;;;;;;;;;4993386;28;20555;-59
2023/08/27 03:39:48;;;;;;;3.80;2.30;;;;;;;;;;5000175;28;20548;-60
2023/08/27 03:42:15;;;;;;;3.10;2.50;;;;;;;;;;5010321;28;20932;-59
2023/08/27 03:44:42;;;;;;;4.00;2.10;;;;;;;;;;5010632;28;20506;-59
2023/08/27 03:47:10;;;;;;;3.90;2.50;;;;;;;;;;5011637;28;20485;-58
2023/08/27 03:49:37;;;;;;;2.80;2.17;;;;;;;;;;5011594;28;20518;-58
2023/08/27 03:52:05;;;;;;;3.40;2.43;;;;;;;;;;5011361;28;20524;-58
2023/08/27 03:54:32;;;;;;;3.40;2.40;;;;;;;;;;5010194;28;20447;-58
2023/08/27 03:57:01;;;;;;;3.43;2.40;;;;;;;;;;5011520;28;20561;-59
2023/08/27 03:59:28;;;;;;;3.50;1.80;;;;;;;;;;5011673;28;20526;-58
2023/08/27 04:01:56;;;;;;;2.70;1.63;;;;;;;;;;5010359;28;20530;-58
2023/08/27 04:04:24;;;;;;;4.23;2.30;;;;;;;;;;5007800;28;20451;-58
2023/08/27 04:06:51;;;;;;;4.17;2.03;;;;;;;;;;5009462;28;20523;-56
2023/08/27 04:09:18;;;;;;;3.03;1.90;;;;;;;;;;5009720;28;21015;-58
2023/08/27 04:11:45;;;;;;;4.60;2.07;;;;;;;;;;5010110;28;20607;-58
2023/08/27 04:14:14;;;;;;;3.10;2.00;;;;;;;;;;5008015;28;20945;-58
2023/08/27 04:16:41;;;;;;;3.00;2.00;;;;;;;;;;5008466;28;20577;-57
2023/08/27 04:19:08;;;;;;;4.53;2.47;;;;;;;;;;5008917;28;20470;-58
2023/08/27 04:21:36;;;;;;;2.97;2.30;;;;;;;;;;5008893;28;20451;-58
2023/08/27 04:24:03;;;;;;;3.80;2.53;;;;;;;;;;5009017;28;20466;-58
2023/08/27 04:26:30;;;;;;;3.47;2.50;;;;;;;;;;5012683;28;20942;-58
2023/08/27 04:28:57;;;;;;;4.30;2.47;;;;;;;;;;5012651;28;20451;-58
2023/08/27 04:31:26;;;;;;;3.73;2.40;;;;;;;;;;5012400;28;20474;-59
2023/08/27 04:33:53;;;;;;;3.10;2.37;;;;;;;;;;5012336;28;21040;-58
2023/08/27 04:36:21;;;;;;;4.00;2.10;;;;;;;;;;5012626;28;20514;-59
2023/08/27 04:38:48;;;;;;;3.57;2.00;;;;;;;;;;5012498;28;20443;-58
2023/08/27 04:41:15;;;;;;;4.50;2.07;;;;;;;;;;5012710;28;20533;-59
2023/08/27 04:43:42;;;;;;;5.43;2.43;;;;;;;;;;5012039;28;20545;-58
2023/08/27 04:46:10;;;;;;;3.53;2.30;;;;;;;;;;5012572;28;20471;-58
2023/08/27 04:48:38;;;;;;;3.30;2.40;;;;;;;;;;5012447;28;20814;-59
2023/08/27 04:51:06;;;;;;;3.30;2.30;;;;;;;;;;5012322;28;20532;-58
2023/08/27 04:53:33;;;;;;;4.10;2.40;;;;;;;;;;5012002;28;20682;-59
2023/08/27 04:56:00;;;;;;;3.77;2.00;;;;;;;;;;5012163;28;20880;-58
2023/08/27 04:58:27;;;;;;;3.50;2.20;;;;;;;;;;5011953;28;20953;-57
2023/08/27 05:00:55;;;;;;;2.63;1.80;;;;;;;;;;5012001;28;20479;-58
2023/08/27 05:03:22;;;;;;;3.50;2.33;;;;;;;;;;5012215;28;20539;-58
2023/08/27 05:05:54;;;;;;;3.70;2.23;;;;;;;;;;5012134;28;20466;-58
2023/08/27 05:08:21;;;;;;;6.23;2.60;;;;;;;;;;5011525;28;20443;-57
2023/08/27 05:10:48;;;;;;;4.07;2.50;;;;;;;;;;5012107;28;20439;-56
2023/08/27 05:13:16;;;;;;;5.00;2.43;;;;;;;;;;5011903;28;20537;-57
2023/08/27 05:15:44;;;;;;;2.97;2.20;;;;;;;;;;5012152;28;20451;-57
2023/08/27 05:18:11;;;;;;;3.37;1.73;;;;;;;;;;5011317;28;20514;-58
2023/08/27 05:20:38;;;;;;;3.37;2.00;;;;;;;;;;5011593;28;20525;-58
2023/08/27 05:23:07;;;;;;;3.30;2.03;;;;;;;;;;5011478;28;20894;-58
2023/08/27 05:25:35;;;;;;;2.90;1.90;;;;;;;;;;5011983;28;20545;-57
2023/08/27 05:28:03;;;;;;;2.93;1.70;;;;;;;;;;5011959;28;20439;-58
2023/08/27 05:30:30;;;;;;;3.10;1.57;;;;;;;;;;5011716;28;20471;-59
2023/08/27 05:32:57;;;;;;;2.57;1.97;;;;;;;;;;5010989;28;20491;-59
2023/08/27 05:35:25;;;;;;;3.37;2.13;;;;;;;;;;5010795;28;21007;-58
2023/08/27 05:37:52;;;;;;;2.70;1.73;;;;;;;;;;5011650;28;20489;-59
2023/08/27 05:40:21;;;;;;;2.80;1.80;;;;;;;;;;5011463;28;20537;-58
2023/08/27 05:42:48;;;;;;;2.83;1.67;;;;;;;;;;5011161;28;20507;-58
2023/08/27 05:45:15;;;;;;;4.20;1.90;;;;;;;;;;5011125;28;20529;-58
2023/08/27 05:47:42;;;;;;;2.70;2.00;;;;;;;;;;5011344;28;20552;-59
2023/08/27 05:50:10;;;;;;;2.60;1.70;;;;;;;;;;5010501;28;20570;-58
2023/08/27 05:52:38;;;;;;;4.00;1.90;;;;;;;;;;5010727;28;20510;-59
2023/08/27 05:55:05;;;;;;;3.63;2.03;;;;;;;;;;5011567;28;20439;-58
2023/08/27 05:57:34;;;;;;;3.00;2.20;;;;;;;;;;5011539;28;20513;-59
2023/08/27 06:00:02;;;;;;;2.63;1.60;;;;;;;;;;5011682;28;20439;-57
2023/08/27 06:02:30;;;;;;;3.90;2.07;;;;;;;;;;5010646;28;20486;-57
2023/08/27 06:04:57;;;;;;;2.97;1.83;;;;;;;;;;5011663;28;20538;-59
2023/08/27 06:07:24;;;;;;;6.57;1.47;;;;;;;;;;5009545;28;20950;-58
2023/08/27 06:09:51;;;;;;;2.70;1.57;;;;;;;;;;5010425;28;20526;-58
2023/08/27 06:12:19;;;;;;;2.60;1.43;;;;;;;;;;5010801;28;20549;-57
2023/08/27 06:14:47;;;;;;;2.93;1.67;;;;;;;;;;5010539;28;20882;-57
2023/08/27 06:17:15;;;;;;;2.60;1.60;;;;;;;;;;5009263;28;21004;-59
2023/08/27 06:19:42;;;;;;;2.77;2.00;;;;;;;;;;5009292;28;20454;-58
2023/08/27 06:22:09;;;;;;;2.70;1.87;;;;;;;;;;5008975;28;20551;-57
2023/08/27 06:24:36;;;;;;;2.93;1.90;;;;;;;;;;5009248;28;20825;-59
2023/08/27 06:27:04;;;;;;;3.10;2.10;;;;;;;;;;5009331;28;20471;-56
2023/08/27 06:29:31;;;;;;;3.97;2.07;;;;;;;;;;5009054;28;20533;-59
2023/08/27 06:32:00;;;;;;;3.20;1.93;;;;;;;;;;5009388;28;20443;-57
2023/08/27 06:34:27;;;;;;;1.90;1.20;;;;;;;;;;5010440;28;20475;-59
2023/08/27 06:36:54;;;;;;;1.90;1.00;;;;;;;;;;5010378;28;20562;-58
2023/08/27 06:39:21;;;;;;;2.50;0.90;;;;;;;;;;5010314;28;21012;-59
2023/08/27 06:41:49;;;;;;;2.30;1.10;;;;;;;;;;5010157;28;20530;-58
2023/08/27 06:44:16;;;;;;;2.43;1.03;;;;;;;;;;5010408;28;20541;-59
2023/08/27 06:46:43;;;;;;;5.47;1.37;;;;;;;;;;5009564;28;20930;-59
2023/08/27 06:49:12;;;;;;;2.40;1.33;;;;;;;;;;5009782;28;20534;-59
2023/08/27 06:51:39;;;;;;;2.83;1.60;;;;;;;;;;5010184;28;20528;-59
2023/08/27 06:54:06;;;;;;;3.10;1.50;;;;;;;;;;5010305;28;20458;-58
2023/08/27 06:56:33;;;;;;;2.57;1.20;;;;;;;;;;5010161;28;20530;-59
2023/08/27 06:59:01;;;;;;;2.47;1.63;;;;;;;;;;5010193;28;20471;-58
2023/08/27 07:01:28;;;;;;;2.30;1.20;;;;;;;;;;5009899;28;21033;-58
2023/08/27 07:03:57;;;;;;;2.40;1.37;;;;;;;;;;5009080;28;21012;-58
2023/08/27 07:06:26;;;;;;;2.47;1.73;;;;;;;;;;5009027;28;20957;-58
2023/08/27 07:08:53;;;;;;;4.27;1.40;;;;;;;;;;5009105;28;20531;-59
2023/08/27 07:11:20;;;;;;;2.80;1.27;;;;;;;;;;5009259;28;20518;-58
2023/08/27 07:13:48;;;;;;;2.57;1.30;;;;;;;;;;5008933;28;21102;-59
2023/08/27 07:16:16;;;;;;;2.00;1.20;;;;;;;;;;5008796;28;20450;-58
2023/08/27 07:18:43;;;;;;;2.13;1.13;;;;;;;;;;5009269;28;20485;-58
2023/08/27 07:21:10;;;;;;;2.40;1.40;;;;;;;;;;5009261;28;20467;-57
2023/08/27 07:23:39;;;;;;;2.97;1.70;;;;;;;;;;5008956;28;20463;-56
2023/08/27 07:26:06;;;;;;;2.30;1.30;;;;;;;;;;5008984;28;20462;-58
2023/08/27 07:28:33;;;;;;;2.43;1.67;;;;;;;;;;5009549;28;20436;-58
2023/08/27 07:31:01;;;;;;;1.90;1.30;;;;;;;;;;5008595;28;20526;-59
2023/08/27 07:33:28;;;;;;;3.00;1.20;;;;;;;;;;5008558;28;20459;-59
2023/08/27 07:35:55;;;;;;;2.30;1.27;;;;;;;;;;5009064;28;20439;-58
2023/08/27 07:38:24;;;;;;;2.83;1.30;;;;;;;;;;5008984;28;20554;-59
2023/08/27 07:40:53;;;;;;;1.97;1.13;;;;;;;;;;5006367;28;20447;-58
2023/08/27 07:43:20;;;;;;;3.07;1.53;;;;;;;;;;5008512;28;20490;-58
2023/08/27 07:45:47;;;;;;;3.20;1.50;;;;;;;;;;5008736;28;21046;-59
2023/08/27 07:48:15;;;;;;;2.30;1.30;;;;;;;;;;5008800;28;20539;-58
2023/08/27 07:50:42;;;;;;;2.70;1.50;;;;;;;;;;5008871;28;20522;-58
2023/08/27 07:53:09;;;;;;;3.33;1.30;;;;;;;;;;5005660;28;20534;-58
2023/08/27 07:55:37;;;;;;;2.77;1.63;;;;;;;;;;5008821;28;20529;-58
2023/08/27 07:58:05;;;;;;;2.50;1.43;;;;;;;;;;5008343;28;21107;-58
2023/08/27 08:00:32;;;;;;;2.40;1.50;;;;;;;;;;5007347;28;20475;-58
2023/08/27 08:03:00;;;;;;;3.43;1.73;;;;;;;;;;5008141;28;20485;-58
2023/08/27 08:05:27;;;;;;;3.30;1.30;;;;;;;;;;5008966;28;20522;-58
2023/08/27 08:07:54;;;;;;;2.10;1.30;;;;;;;;;;5007037;28;20475;-58
2023/08/27 08:10:21;;;;;;;2.00;1.20;;;;;;;;;;4995297;28;20522;-59
2023/08/27 08:12:49;;;;;;;2.70;1.47;;;;;;;;;;4985858;28;20456;-56
2023/08/27 08:15:18;;;;;;;2.57;1.50;;;;;;;;;;4987782;28;20927;-57
2023/08/27 08:17:46;;;;;;;2.30;1.20;;;;;;;;;;4987796;28;20894;-58
2023/08/27 08:20:13;;;;;;;2.57;1.20;;;;;;;;;;5004866;28;20904;-58
2023/08/27 08:22:40;;;;;;;2.63;1.37;;;;;;;;;;5008151;28;20542;-58
2023/08/27 08:25:08;;;;;;;2.33;1.70;;;;;;;;;;5007566;28;20558;-58
2023/08/27 08:27:35;;;;;;;4.07;1.70;;;;;;;;;;5006596;28;20497;-58
2023/08/27 08:30:04;;;;;;;3.00;1.53;;;;;;;;;;5006982;28;20875;-59
2023/08/27 08:32:32;;;;;;;2.57;1.57;;;;;;;;;;5006266;28;21298;-59
2023/08/27 08:35:00;;;;;;;2.63;1.30;;;;;;;;;;5006718;28;20650;-58
2023/08/27 08:37:27;;;;;;;2.80;1.80;;;;;;;;;;5006753;28;20581;-58
2023/08/27 08:39:55;;;;;;;2.80;1.70;;;;;;;;;;4994544;28;20490;-58
2023/08/27 08:42:28;;;;;;;3.60;1.90;;;;;;;;;;5001000;23;20506;-54
2023/08/27 08:45:00;;;;;;;2.27;1.53;;;;;;;;;;4968330;28;20846;-56
2023/08/27 08:47:27;;;;;;;2.80;1.80;;;;;;;;;;4969126;28;20544;-55
2023/08/27 08:49:56;;;;;;;2.77;1.87;;;;;;;;;;4969614;28;20893;-54
2023/08/27 08:52:25;;;;;;;2.80;1.83;;;;;;;;;;4969111;28;20544;-55
2023/08/27 08:54:53;;;;;;;2.30;1.63;;;;;;;;;;4968665;28;20484;-55
2023/08/27 08:57:21;;;;;;;2.47;1.80;;;;;;;;;;4969025;28;20485;-56
2023/08/27 08:59:49;;;;;;;2.67;1.60;;;;;;;;;;4969194;28;20528;-56
2023/08/27 09:02:16;;;;;;;3.90;1.87;;;;;;;;;;4969282;28;20543;-55
2023/08/27 09:04:44;;;;;;;2.73;2.03;;;;;;;;;;4969385;28;20528;-54
2023/08/27 09:07:13;;;;;;;3.03;1.80;;;;;;;;;;4968834;28;20535;-54
2023/08/27 09:09:41;;;;;;;4.00;2.47;;;;;;;;;;4968836;28;20523;-54
2023/08/27 09:12:09;;;;;;;3.97;2.27;;;;;;;;;;4985768;28;20440;-55
2023/08/27 09:14:37;;;;;;;2.73;1.60;;;;;;;;;;4991749;28;20531;-55
2023/08/27 09:17:05;;;;;;;2.30;1.40;;;;;;;;;;4991332;28;20450;-55
2023/08/27 09:19:32;;;;;;;3.40;2.00;;;;;;;;;;4991580;28;20494;-54
2023/08/27 09:21:59;;;;;;;3.00;1.30;;;;;;;;;;4991076;28;20921;-55
2023/08/27 09:24:28;;;;;;;2.87;1.30;;;;;;;;;;4991653;28;20835;-55
2023/08/27 09:26:55;;;;;;;2.60;1.50;;;;;;;;;;4991497;28;20693;-54
2023/08/27 09:29:23;;;;;;;3.30;2.03;;;;;;;;;;4991613;28;20519;-55
2023/08/27 09:31:51;;;;;;;2.70;1.63;;;;;;;;;;4991089;28;20499;-55
2023/08/27 09:34:20;;;;;;;3.40;1.47;;;;;;;;;;4990579;28;21174;-56
2023/08/27 09:36:48;;;;;;;3.40;2.60;;;;;;;;;;4989926;28;21000;-54
2023/08/27 09:39:15;;;;;;;3.53;2.10;;;;;;;;;;4977911;28;20477;-55
2023/08/27 09:41:44;;;;;;;2.67;1.40;;;;;;;;;;4966701;28;20457;-56
2023/08/27 09:44:12;;;;;;;3.40;1.80;;;;;;;;;;4990611;28;20898;-56
2023/08/27 09:46:40;;;;;;;2.80;1.87;;;;;;;;;;4987358;28;20463;-56
2023/08/27 09:49:08;;;;;;;3.83;1.83;;;;;;;;;;4990313;28;20632;-57
2023/08/27 09:51:36;;;;;;;3.07;1.83;;;;;;;;;;4982681;28;20610;-56
2023/08/27 09:54:13;;;;;;;2.97;1.83;;;;;;;;;;4988805;28;21159;-55
2023/08/27 09:56:40;;;;;;;2.60;1.50;;;;;;;;;;5000537;28;20521;-56
2023/08/27 09:59:09;;;;;;;3.43;1.90;;;;;;;;;;5010539;28;20564;-56
2023/08/27 10:01:36;;;;;;;3.40;1.87;;;;;;;;;;4995098;28;20483;-56
2023/08/27 10:04:07;;;;;;;2.60;1.20;;;;;;;;;;4986160;28;20575;-55
2023/08/27 10:06:35;;;;;;;3.80;2.40;;;;;;;;;;4990996;28;20536;-55
2023/08/27 10:09:03;;;;;;;3.87;2.00;;;;;;;;;;4983101;28;20468;-57
2023/08/27 10:11:30;;;;;;;2.27;1.50;;;;;;;;;;4984624;28;20486;-56
2023/08/27 10:13:58;;;;;;;11.87;10.40;;;;;;;;;;4988477;28;20491;-56
2023/08/27 10:16:28;;;;;;;6.30;5.30;;;;;;;;;;4989066;28;20446;-55
2023/08/27 10:18:55;;;;;;;4.00;2.47;;;;;;;;;;4982494;28;20502;-55
2023/08/27 10:21:23;;;;;;;5.43;4.20;;;;;;;;;;4989797;28;21012;-55
2023/08/27 10:23:50;;;;;;;3.87;2.10;;;;;;;;;;4987142;28;20978;-55
2023/08/27 10:26:17;;;;;;;3.43;2.10;;;;;;;;;;4986243;28;20527;-55
2023/08/27 10:28:45;;;;;;;3.10;1.80;;;;;;;;;;4989263;28;20636;-56
2023/08/27 10:31:14;;;;;;;3.17;1.93;;;;;;;;;;4988386;28;20432;-55
2023/08/27 10:33:43;;;;;;;2.53;1.60;;;;;;;;;;4988856;28;21057;-55
2023/08/27 10:36:12;;;;;;;2.40;1.70;;;;;;;;;;4989261;28;20946;-56
2023/08/27 10:38:41;;;;;;;2.50;1.63;;;;;;;;;;4989567;28;20492;-56
2023/08/27 10:41:09;;;;;;;2.87;1.60;;;;;;;;;;4989333;28;20475;-56
2023/08/27 10:43:36;;;;;;;2.90;1.70;;;;;;;;;;4988721;28;20730;-56
2023/08/27 10:46:10;;;;;;;2.77;1.63;;;;;;;;;;4989882;28;20839;-57
2023/08/27 10:48:38;;;;;;;2.90;1.70;;;;;;;;;;4989724;28;20527;-56
2023/08/27 10:51:11;;;;;;;2.63;1.90;;;;;;;;;;4989946;28;20494;-56
2023/08/27 10:53:42;;;;;;;2.30;1.63;;;;;;;;;;4988971;28;20476;-56
2023/08/27 10:56:26;;;;;;;3.03;1.63;;;;;;;;;;4990303;28;20506;-55
2023/08/27 10:58:54;;;;;;;2.80;2.00;;;;;;;;;;4990044;28;20515;-58
2023/08/27 11:01:21;;;;;;;2.33;1.60;;;;;;;;;;4982547;28;20487;-56
2023/08/27 11:03:52;;;;;;;2.93;1.97;;;;;;;;;;4989429;28;20518;-56
2023/08/27 11:06:21;;;;;;;2.43;1.87;;;;;;;;;;4989336;28;20931;-55
2023/08/27 11:08:52;;;;;;;3.23;1.50;;;;;;;;;;4987767;28;20444;-56
2023/08/27 11:11:24;;;;;;;3.07;1.80;;;;;;;;;;4988853;28;20451;-56
2023/08/27 11:14:02;;;;;;;3.17;1.77;;;;;;;;;;4989315;28;20464;-56
2023/08/27 11:16:31;;;;;;;2.90;1.97;;;;;;;;;;4986483;28;20439;-56
2023/08/27 11:18:59;;;;;;;2.27;1.43;;;;;;;;;;4983069;28;20594;-55
2023/08/27 11:21:50;;;;;;;2.63;1.67;;;;;;;;;;4984971;28;20490;-56
2023/08/27 11:24:21;;;;;;;2.40;1.57;;;;;;;;;;4970204;28;20547;-55
2023/08/27 11:26:48;;;;;;;2.43;1.30;;;;;;;;;;4985109;28;20506;-55
2023/08/27 11:29:16;;;;;;;2.87;2.00;;;;;;;;;;4986099;28;20447;-56
2023/08/27 11:31:43;;;;;;;3.27;1.83;;;;;;;;;;4986000;28;20949;-55
2023/08/27 11:34:12;;;;;;;2.70;1.80;;;;;;;;;;4984992;28;20987;-56
2023/08/27 11:36:40;;;;;;;2.30;1.40;;;;;;;;;;4985464;28;20756;-55
2023/08/27 11:39:08;;;;;;;2.63;1.57;;;;;;;;;;4985269;28;20846;-55
2023/08/27 11:41:37;;;;;;;2.87;1.50;;;;;;;;;;4986098;28;20484;-55
2023/08/27 11:44:05;;;;;;;2.30;1.40;;;;;;;;;;4985881;28;20913;-55
2023/08/27 11:46:32;;;;;;;2.60;1.70;;;;;;;;;;4984389;28;20527;-56
2023/08/27 11:48:59;;;;;;;2.37;1.67;;;;;;;;;;4984024;28;20543;-55
2023/08/27 11:51:27;;;;;;;2.70;1.53;;;;;;;;;;4986264;28;20943;-56
2023/08/27 11:53:54;;;;;;;3.50;1.73;;;;;;;;;;4985413;28;20543;-56
2023/08/27 11:56:21;;;;;;;2.10;1.47;;;;;;;;;;4984121;28;20497;-55
2023/08/27 11:58:52;;;;;;;2.70;1.60;;;;;;;;;;4986422;28;20906;-56
2023/08/27 12:01:21;;;;;;;2.40;1.57;;;;;;;;;;4985119;28;20538;-55
2023/08/27 12:03:49;;;;;;;2.47;1.30;;;;;;;;;;4984096;28;20468;-55
2023/08/27 12:06:19;;;;;;;3.17;1.77;;;;;;;;;;4987080;28;20656;-55
2023/08/27 12:08:49;;;;;;;2.87;2.03;;;;;;;;;;4985210;28;20437;-55
2023/08/27 12:11:17;;;;;;;3.73;1.97;;;;;;;;;;4981733;28;20441;-57
2023/08/27 12:13:47;;;;;;;2.27;1.43;;;;;;;;;;4985248;28;20456;-56
2023/08/27 12:16:15;;;;;;;2.57;1.70;;;;;;;;;;4988462;28;20436;-56
2023/08/27 12:18:47;;;;;;;2.40;1.80;;;;;;;;;;4987389;28;20570;-54
2023/08/27 12:21:14;;;;;;;2.30;0.90;;;;;;;;;;4988340;28;20782;-55
2023/08/27 12:23:51;;;;;;;1.90;0.90;;;;;;;;;;4988009;28;20542;-56
2023/08/27 12:26:19;;;;;;;3.40;0.70;;;;;;;;;;4988407;28;20443;-56
2023/08/27 12:28:53;;;;;;;2.10;0.90;;;;;;;;;;4988325;28;20875;-57
2023/08/27 12:31:25;;;;;;;1.77;0.90;;;;;;;;;;4987168;28;20443;-57
2023/08/27 12:33:58;;;;;;;3.60;0.87;;;;;;;;;;4987927;28;20460;-58
2023/08/27 12:36:26;;;;;;;2.77;1.00;;;;;;;;;;4985544;28;20440;-58
2023/08/27 12:38:53;;;;;;;2.03;1.27;;;;;;;;;;4988122;28;20777;-56
2023/08/27 12:41:22;;;;;;;1.80;0.93;;;;;;;;;;4978625;28;20475;-59
2023/08/27 12:43:51;;;;;;;1.90;1.00;;;;;;;;;;4983504;28;20487;-59
2023/08/27 12:46:19;;;;;;;2.20;1.00;;;;;;;;;;4986935;28;20456;-56
2023/08/27 12:48:48;;;;;;;2.20;1.17;;;;;;;;;;4989578;28;20524;-57
2023/08/27 12:51:15;;;;;;;2.47;1.23;;;;;;;;;;4990766;28;20448;-55
2023/08/27 12:53:43;;;;;;;1.83;0.93;;;;;;;;;;4990253;28;20550;-57
2023/08/27 12:56:10;;;;;;;2.60;1.10;;;;;;;;;;4989842;28;20451;-58
2023/08/27 12:58:37;;;;;;;1.80;0.80;;;;;;;;;;4981966;28;20540;-58
2023/08/27 13:01:05;;;;;;;2.13;1.10;;;;;;;;;;4985032;28;20448;-58
2023/08/27 13:03:32;;;;;;;2.37;1.00;;;;;;;;;;4983861;28;20518;-57
2023/08/27 13:06:01;;;;;;;1.73;0.90;;;;;;;;;;4985669;28;20448;-58
2023/08/27 13:08:28;;;;;;;2.13;1.00;;;;;;;;;;4985556;28;20532;-57
2023/08/27 13:10:55;;;;;;;1.60;0.80;;;;;;;;;;4986454;28;20471;-55
2023/08/27 13:13:23;;;;;;;2.97;1.37;;;;;;;;;;4986064;28;20467;-58
2023/08/27 13:15:50;;;;;;;1.80;0.90;;;;;;;;;;4988478;28;20479;-59
2023/08/27 13:18:19;;;;;;;2.47;1.30;;;;;;;;;;4984723;28;20465;-57
2023/08/27 13:20:47;;;;;;;4.50;1.43;;;;;;;;;;4977858;28;20488;-55
2023/08/27 13:23:16;;;;;;;2.13;1.07;;;;;;;;;;4978660;28;20555;-56
2023/08/27 13:25:43;;;;;;;1.90;0.80;;;;;;;;;;4983348;28;20780;-57
2023/08/27 13:28:11;;;;;;;1.73;0.77;;;;;;;;;;4984100;28;20524;-55
2023/08/27 13:30:38;;;;;;;2.90;0.80;;;;;;;;;;4977361;28;20472;-55
2023/08/27 13:33:05;;;;;;;1.97;0.63;;;;;;;;;;4980021;28;20576;-55
2023/08/27 13:35:33;;;;;;;1.87;1.00;;;;;;;;;;4977804;28;20457;-56
2023/08/27 13:38:01;;;;;;;1.73;0.67;;;;;;;;;;4985186;28;20456;-56
2023/08/27 13:40:29;;;;;;;1.83;0.90;;;;;;;;;;4980965;28;20536;-55
2023/08/27 13:42:57;;;;;;;1.80;0.80;;;;;;;;;;4986708;28;20551;-56
2023/08/27 13:45:24;;;;;;;7.13;0.83;;;;;;;;;;4981008;28;20543;-57
2023/08/27 13:47:51;;;;;;;3.30;0.70;;;;;;;;;;4987079;28;20483;-57
2023/08/27 13:50:19;;;;;;;1.90;1.07;;;;;;;;;;4977886;28;20591;-55
2023/08/27 13:52:46;;;;;;;2.07;1.00;;;;;;;;;;4983121;28;20917;-55
2023/08/27 13:55:14;;;;;;;1.97;0.80;;;;;;;;;;4981384;28;20456;-57
2023/08/27 13:57:43;;;;;;;1.67;0.70;;;;;;;;;;4987783;28;20543;-56
2023/08/27 14:00:28;;;;;;;1.77;0.70;;;;;;;;;;5112225;27;20980;-56
2023/08/27 14:02:56;;;;;;;2.00;1.10;;;;;;;;;;5108808;28;20989;-56
2023/08/27 14:05:23;;;;;;;2.27;0.67;;;;;;;;;;5084309;28;20475;-56
2023/08/27 14:07:50;;;;;;;2.67;0.87;;;;;;;;;;5082652;28;20543;-56
2023/08/27 14:10:18;;;;;;;1.90;0.80;;;;;;;;;;5084564;28;20516;-55
2023/08/27 14:12:46;;;;;;;1.83;0.60;;;;;;;;;;5084739;28;20891;-56
2023/08/27 14:15:13;;;;;;;2.13;0.90;;;;;;;;;;5089350;28;20522;-55
2023/08/27 14:17:42;;;;;;;2.53;1.00;;;;;;;;;;5086149;28;20522;-56
2023/08/27 14:20:09;;;;;;;2.27;1.20;;;;;;;;;;5088211;28;20530;-57
2023/08/27 14:22:37;;;;;;;2.67;1.03;;;;;;;;;;5081841;28;20476;-56
2023/08/27 14:25:04;;;;;;;2.47;1.23;;;;;;;;;;5082445;28;20446;-56
2023/08/27 14:27:31;;;;;;;3.30;1.13;;;;;;;;;;5083095;28;20985;-56
2023/08/27 14:29:58;;;;;;;2.30;0.97;;;;;;;;;;5081585;28;20467;-55
2023/08/27 14:32:26;;;;;;;2.20;0.90;;;;;;;;;;5076760;28;21019;-56
2023/08/27 14:34:54;;;;;;;1.90;0.80;;;;;;;;;;5081345;28;20519;-55
2023/08/27 14:37:22;;;;;;;2.47;1.10;;;;;;;;;;5083169;28;20970;-56
2023/08/27 14:39:49;;;;;;;1.70;0.80;;;;;;;;;;5083563;28;20591;-56
2023/08/27 14:44:51;;;;;;;2.10;0.90;;;;;;;;;;5080092;28;20458;-59
2023/08/27 14:47:18;;;;;;;3.33;1.00;;;;;;;;;;5081892;28;20471;-59
2023/08/27 14:49:46;;;;;;;3.80;1.17;;;;;;;;;;5083764;28;20903;-59